sensor_id;sensor_type;location;lat;lon;timestamp;P1;durP1;ratioP1;P2;durP2;ratioP2
422;SDS011;198;48.752;9.180;2023-02-28T00:00:21;4.03;;;2.20;;
422;SDS011;198;48.752;9.180;2023-02-28T00:02:47;2.30;;;1.93;;
422;SDS011;198;48.752;9.180;2023-02-28T00:05:14;7.30;;;2.70;;
422;SDS011;198;48.752;9.180;2023-02-28T00:07:41;7.50;;;3.03;;
422;SDS011;198;48.752;9.180;2023-02-28T00:10:07;7.63;;;2.80;;
422;SDS011;198;48.752;9.180;2023-02-28T00:12:39;3.87;;;2.20;;
422;SDS011;198;48.752;9.180;2023-02-28T00:15:05;5.80;;;2.70;;
422;SDS011;198;48.752;9.180;2023-02-28T00:17:35;2.90;;;2.40;;
422;SDS011;198;48.752;9.180;2023-02-28T00:20:01;4.20;;;2.03;;
422;SDS011;198;48.752;9.180;2023-02-28T00:22:28;10.43;;;2.47;;
422;SDS011;198;48.752;9.180;2023-02-28T00:24:54;19.57;;;2.53;;
422;SDS011;198;48.752;9.180;2023-02-28T00:27:19;4.30;;;2.43;;
422;SDS011;198;48.752;9.180;2023-02-28T00:29:46;2.93;;;2.27;;
422;SDS011;198;48.752;9.180;2023-02-28T00:32:12;4.00;;;2.33;;
422;SDS011;198;48.752;9.180;2023-02-28T00:34:37;7.80;;;2.37;;
422;SDS011;198;48.752;9.180;2023-02-28T00:37:04;2.70;;;2.20;;
422;SDS011;198;48.752;9.180;2023-02-28T00:39:30;4.40;;;2.43;;
422;SDS011;198;48.752;9.180;2023-02-28T00:41:56;5.50;;;2.53;;
422;SDS011;198;48.752;9.180;2023-02-28T00:44:21;6.47;;;2.33;;
422;SDS011;198;48.752;9.180;2023-02-28T00:46:47;16.80;;;3.63;;
422;SDS011;198;48.752;9.180;2023-02-28T00:49:12;2.73;;;2.27;;
422;SDS011;198;48.752;9.180;2023-02-28T00:51:38;6.67;;;2.53;;
422;SDS011;198;48.752;9.180;2023-02-28T00:54:03;9.53;;;2.43;;
422;SDS011;198;48.752;9.180;2023-02-28T00:56:29;5.83;;;1.70;;
422;SDS011;198;48.752;9.180;2023-02-28T00:58:54;4.27;;;2.60;;
422;SDS011;198;48.752;9.180;2023-02-28T01:01:20;7.60;;;2.60;;
422;SDS011;198;48.752;9.180;2023-02-28T01:03:45;3.47;;;2.50;;
422;SDS011;198;48.752;9.180;2023-02-28T01:06:11;3.87;;;2.83;;
422;SDS011;198;48.752;9.180;2023-02-28T01:08:36;7.30;;;3.50;;
422;SDS011;198;48.752;9.180;2023-02-28T01:11:08;2.97;;;2.30;;
422;SDS011;198;48.752;9.180;2023-02-28T01:13:35;8.13;;;2.70;;
422;SDS011;198;48.752;9.180;2023-02-28T01:16:01;3.83;;;2.67;;
422;SDS011;198;48.752;9.180;2023-02-28T01:18:26;11.43;;;2.60;;
422;SDS011;198;48.752;9.180;2023-02-28T01:20:52;3.43;;;2.30;;
422;SDS011;198;48.752;9.180;2023-02-28T01:23:18;5.63;;;2.37;;
422;SDS011;198;48.752;9.180;2023-02-28T01:25:45;3.40;;;2.17;;
422;SDS011;198;48.752;9.180;2023-02-28T01:28:10;3.73;;;2.20;;
422;SDS011;198;48.752;9.180;2023-02-28T01:30:36;2.87;;;1.83;;
422;SDS011;198;48.752;9.180;2023-02-28T01:33:01;4.47;;;2.90;;
422;SDS011;198;48.752;9.180;2023-02-28T01:35:27;4.50;;;2.93;;
422;SDS011;198;48.752;9.180;2023-02-28T01:37:53;7.37;;;3.10;;
422;SDS011;198;48.752;9.180;2023-02-28T01:40:18;6.33;;;2.43;;
422;SDS011;198;48.752;9.180;2023-02-28T01:42:44;5.13;;;3.27;;
422;SDS011;198;48.752;9.180;2023-02-28T01:47:43;9.83;;;2.13;;
422;SDS011;198;48.752;9.180;2023-02-28T01:50:14;4.23;;;2.80;;
422;SDS011;198;48.752;9.180;2023-02-28T01:52:46;4.50;;;2.20;;
422;SDS011;198;48.752;9.180;2023-02-28T01:55:15;4.07;;;2.63;;
422;SDS011;198;48.752;9.180;2023-02-28T01:57:46;4.63;;;2.63;;
422;SDS011;198;48.752;9.180;2023-02-28T02:00:16;5.73;;;2.40;;
422;SDS011;198;48.752;9.180;2023-02-28T02:02:45;4.07;;;1.97;;
422;SDS011;198;48.752;9.180;2023-02-28T02:05:21;3.33;;;2.60;;
422;SDS011;198;48.752;9.180;2023-02-28T02:07:50;6.70;;;2.40;;
422;SDS011;198;48.752;9.180;2023-02-28T02:10:20;3.83;;;2.67;;
422;SDS011;198;48.752;9.180;2023-02-28T02:13:10;4.13;;;2.73;;
422;SDS011;198;48.752;9.180;2023-02-28T02:18:47;9.10;;;3.27;;
422;SDS011;198;48.752;9.180;2023-02-28T02:29:56;2.93;;;2.30;;
422;SDS011;198;48.752;9.180;2023-02-28T02:43:39;2.73;;;2.60;;
422;SDS011;198;48.752;9.180;2023-02-28T02:46:18;6.00;;;2.80;;
422;SDS011;198;48.752;9.180;2023-02-28T02:48:49;7.90;;;2.83;;
422;SDS011;198;48.752;9.180;2023-02-28T02:51:18;4.20;;;2.53;;
422;SDS011;198;48.752;9.180;2023-02-28T02:54:02;4.63;;;2.90;;
422;SDS011;198;48.752;9.180;2023-02-28T02:56:35;5.63;;;3.00;;
422;SDS011;198;48.752;9.180;2023-02-28T02:59:05;3.70;;;2.80;;
422;SDS011;198;48.752;9.180;2023-02-28T03:01:34;5.63;;;2.80;;
422;SDS011;198;48.752;9.180;2023-02-28T03:04:01;7.80;;;4.00;;
422;SDS011;198;48.752;9.180;2023-02-28T03:06:30;7.57;;;3.00;;
422;SDS011;198;48.752;9.180;2023-02-28T03:08:56;4.30;;;3.37;;
422;SDS011;198;48.752;9.180;2023-02-28T03:11:22;5.93;;;4.00;;
422;SDS011;198;48.752;9.180;2023-02-28T03:13:51;4.60;;;2.90;;
422;SDS011;198;48.752;9.180;2023-02-28T03:22:14;7.00;;;3.67;;
422;SDS011;198;48.752;9.180;2023-02-28T03:24:55;3.50;;;2.57;;
422;SDS011;198;48.752;9.180;2023-02-28T03:30:10;12.03;;;4.30;;
422;SDS011;198;48.752;9.180;2023-02-28T03:32:41;9.60;;;3.63;;
422;SDS011;198;48.752;9.180;2023-02-28T03:35:16;3.67;;;2.90;;
422;SDS011;198;48.752;9.180;2023-02-28T03:38:03;3.60;;;2.37;;
422;SDS011;198;48.752;9.180;2023-02-28T03:40:39;6.60;;;3.20;;
422;SDS011;198;48.752;9.180;2023-02-28T03:43:10;4.10;;;2.40;;
422;SDS011;198;48.752;9.180;2023-02-28T03:45:42;4.23;;;3.07;;
422;SDS011;198;48.752;9.180;2023-02-28T03:50:44;4.93;;;3.40;;
422;SDS011;198;48.752;9.180;2023-02-28T03:53:18;3.17;;;2.63;;
422;SDS011;198;48.752;9.180;2023-02-28T03:56:09;18.90;;;3.20;;
422;SDS011;198;48.752;9.180;2023-02-28T03:58:49;6.67;;;3.60;;
422;SDS011;198;48.752;9.180;2023-02-28T04:01:21;8.70;;;3.40;;
422;SDS011;198;48.752;9.180;2023-02-28T04:03:50;5.57;;;3.33;;
422;SDS011;198;48.752;9.180;2023-02-28T04:06:18;3.97;;;2.70;;
422;SDS011;198;48.752;9.180;2023-02-28T04:08:45;3.03;;;2.57;;
422;SDS011;198;48.752;9.180;2023-02-28T04:11:15;8.03;;;2.77;;
422;SDS011;198;48.752;9.180;2023-02-28T04:13:41;7.60;;;4.10;;
422;SDS011;198;48.752;9.180;2023-02-28T04:16:07;6.33;;;3.37;;
422;SDS011;198;48.752;9.180;2023-02-28T04:18:36;7.60;;;3.33;;
422;SDS011;198;48.752;9.180;2023-02-28T04:21:02;18.23;;;4.00;;
422;SDS011;198;48.752;9.180;2023-02-28T04:23:28;5.40;;;4.20;;
422;SDS011;198;48.752;9.180;2023-02-28T04:25:55;16.10;;;3.23;;
422;SDS011;198;48.752;9.180;2023-02-28T04:28:20;6.60;;;3.80;;
422;SDS011;198;48.752;9.180;2023-02-28T04:30:46;8.47;;;3.90;;
422;SDS011;198;48.752;9.180;2023-02-28T04:33:11;6.57;;;3.50;;
422;SDS011;198;48.752;9.180;2023-02-28T04:35:37;7.63;;;3.93;;
422;SDS011;198;48.752;9.180;2023-02-28T04:38:03;6.07;;;3.20;;
422;SDS011;198;48.752;9.180;2023-02-28T04:40:28;10.17;;;4.10;;
422;SDS011;198;48.752;9.180;2023-02-28T04:42:54;5.30;;;3.60;;
422;SDS011;198;48.752;9.180;2023-02-28T04:45:19;3.90;;;3.40;;
422;SDS011;198;48.752;9.180;2023-02-28T04:47:45;10.70;;;4.00;;
422;SDS011;198;48.752;9.180;2023-02-28T04:50:10;6.63;;;3.40;;
422;SDS011;198;48.752;9.180;2023-02-28T04:52:36;6.10;;;3.67;;
422;SDS011;198;48.752;9.180;2023-02-28T04:55:01;4.53;;;3.30;;
422;SDS011;198;48.752;9.180;2023-02-28T04:57:27;7.60;;;3.30;;
422;SDS011;198;48.752;9.180;2023-02-28T04:59:52;6.63;;;3.60;;
422;SDS011;198;48.752;9.180;2023-02-28T05:02:18;8.70;;;4.13;;
422;SDS011;198;48.752;9.180;2023-02-28T05:04:45;6.30;;;3.50;;
422;SDS011;198;48.752;9.180;2023-02-28T05:07:10;4.60;;;4.00;;
422;SDS011;198;48.752;9.180;2023-02-28T05:09:36;5.60;;;3.47;;
422;SDS011;198;48.752;9.180;2023-02-28T05:12:01;7.20;;;3.30;;
422;SDS011;198;48.752;9.180;2023-02-28T05:14:27;3.87;;;3.07;;
422;SDS011;198;48.752;9.180;2023-02-28T05:16:52;5.17;;;3.43;;
422;SDS011;198;48.752;9.180;2023-02-28T05:19:18;10.17;;;3.90;;
422;SDS011;198;48.752;9.180;2023-02-28T05:21:51;5.13;;;3.30;;
422;SDS011;198;48.752;9.180;2023-02-28T05:24:18;13.07;;;4.23;;
422;SDS011;198;48.752;9.180;2023-02-28T05:26:51;8.27;;;3.60;;
422;SDS011;198;48.752;9.180;2023-02-28T05:29:18;7.00;;;4.27;;
422;SDS011;198;48.752;9.180;2023-02-28T05:31:44;6.83;;;3.60;;
422;SDS011;198;48.752;9.180;2023-02-28T05:34:09;6.07;;;3.40;;
422;SDS011;198;48.752;9.180;2023-02-28T05:36:37;5.70;;;3.77;;
422;SDS011;198;48.752;9.180;2023-02-28T05:39:04;9.93;;;4.03;;
422;SDS011;198;48.752;9.180;2023-02-28T05:41:32;20.10;;;3.77;;
422;SDS011;198;48.752;9.180;2023-02-28T05:43:58;7.13;;;3.90;;
422;SDS011;198;48.752;9.180;2023-02-28T05:46:24;11.70;;;4.57;;
422;SDS011;198;48.752;9.180;2023-02-28T05:48:50;9.70;;;3.90;;
422;SDS011;198;48.752;9.180;2023-02-28T05:51:16;6.00;;;3.67;;
422;SDS011;198;48.752;9.180;2023-02-28T05:53:42;11.00;;;4.10;;
422;SDS011;198;48.752;9.180;2023-02-28T05:56:07;8.00;;;4.43;;
422;SDS011;198;48.752;9.180;2023-02-28T05:58:33;10.97;;;3.90;;
422;SDS011;198;48.752;9.180;2023-02-28T06:00:59;13.70;;;4.53;;
422;SDS011;198;48.752;9.180;2023-02-28T06:03:43;10.33;;;3.90;;
422;SDS011;198;48.752;9.180;2023-02-28T06:06:08;9.40;;;4.30;;
422;SDS011;198;48.752;9.180;2023-02-28T06:08:34;8.90;;;4.30;;
422;SDS011;198;48.752;9.180;2023-02-28T06:11:02;8.40;;;4.00;;
422;SDS011;198;48.752;9.180;2023-02-28T06:13:28;7.10;;;4.13;;
422;SDS011;198;48.752;9.180;2023-02-28T06:15:53;10.80;;;4.23;;
422;SDS011;198;48.752;9.180;2023-02-28T06:18:19;11.23;;;4.00;;
422;SDS011;198;48.752;9.180;2023-02-28T06:20:44;8.00;;;4.43;;
422;SDS011;198;48.752;9.180;2023-02-28T06:23:19;14.37;;;5.97;;
422;SDS011;198;48.752;9.180;2023-02-28T06:25:45;4.77;;;3.80;;
422;SDS011;198;48.752;9.180;2023-02-28T06:28:11;7.73;;;3.77;;
422;SDS011;198;48.752;9.180;2023-02-28T06:30:37;10.90;;;4.03;;
422;SDS011;198;48.752;9.180;2023-02-28T06:33:03;8.20;;;4.70;;
422;SDS011;198;48.752;9.180;2023-02-28T06:35:28;8.13;;;4.37;;
422;SDS011;198;48.752;9.180;2023-02-28T06:37:54;12.77;;;4.00;;
422;SDS011;198;48.752;9.180;2023-02-28T06:40:20;8.30;;;4.40;;
422;SDS011;198;48.752;9.180;2023-02-28T06:42:45;13.73;;;4.63;;
422;SDS011;198;48.752;9.180;2023-02-28T06:45:11;8.47;;;4.23;;
422;SDS011;198;48.752;9.180;2023-02-28T06:47:38;13.13;;;4.40;;
422;SDS011;198;48.752;9.180;2023-02-28T06:50:05;8.83;;;5.13;;
422;SDS011;198;48.752;9.180;2023-02-28T06:52:31;9.13;;;4.07;;
422;SDS011;198;48.752;9.180;2023-02-28T06:54:57;7.27;;;3.77;;
422;SDS011;198;48.752;9.180;2023-02-28T06:57:27;12.23;;;5.87;;
422;SDS011;198;48.752;9.180;2023-02-28T06:59:59;13.70;;;5.43;;
422;SDS011;198;48.752;9.180;2023-02-28T07:02:26;9.57;;;4.20;;
422;SDS011;198;48.752;9.180;2023-02-28T07:04:52;15.33;;;4.93;;
422;SDS011;198;48.752;9.180;2023-02-28T07:07:18;11.00;;;5.20;;
422;SDS011;198;48.752;9.180;2023-02-28T07:09:43;9.60;;;4.73;;
422;SDS011;198;48.752;9.180;2023-02-28T07:12:09;14.93;;;4.67;;
422;SDS011;198;48.752;9.180;2023-02-28T07:14:36;10.80;;;5.17;;
422;SDS011;198;48.752;9.180;2023-02-28T07:17:01;15.70;;;4.83;;
422;SDS011;198;48.752;9.180;2023-02-28T07:19:27;8.00;;;4.20;;
422;SDS011;198;48.752;9.180;2023-02-28T07:21:52;10.23;;;5.20;;
422;SDS011;198;48.752;9.180;2023-02-28T07:24:18;12.60;;;5.17;;
422;SDS011;198;48.752;9.180;2023-02-28T07:26:44;9.00;;;4.53;;
422;SDS011;198;48.752;9.180;2023-02-28T07:29:09;9.37;;;4.33;;
422;SDS011;198;48.752;9.180;2023-02-28T07:31:35;9.40;;;5.10;;
422;SDS011;198;48.752;9.180;2023-02-28T07:34:00;7.93;;;4.30;;
422;SDS011;198;48.752;9.180;2023-02-28T07:36:27;7.97;;;5.30;;
422;SDS011;198;48.752;9.180;2023-02-28T07:38:53;13.60;;;5.03;;
422;SDS011;198;48.752;9.180;2023-02-28T07:41:19;13.80;;;4.83;;
422;SDS011;198;48.752;9.180;2023-02-28T07:43:46;10.07;;;5.33;;
422;SDS011;198;48.752;9.180;2023-02-28T07:46:14;8.50;;;5.03;;
422;SDS011;198;48.752;9.180;2023-02-28T07:48:41;11.87;;;5.10;;
422;SDS011;198;48.752;9.180;2023-02-28T07:51:07;15.40;;;6.17;;
422;SDS011;198;48.752;9.180;2023-02-28T07:53:32;12.70;;;4.80;;
422;SDS011;198;48.752;9.180;2023-02-28T07:55:59;14.60;;;6.50;;
422;SDS011;198;48.752;9.180;2023-02-28T07:58:26;7.83;;;4.67;;
422;SDS011;198;48.752;9.180;2023-02-28T08:00:53;11.00;;;5.60;;
422;SDS011;198;48.752;9.180;2023-02-28T08:03:19;10.50;;;4.87;;
422;SDS011;198;48.752;9.180;2023-02-28T08:05:45;8.50;;;4.00;;
422;SDS011;198;48.752;9.180;2023-02-28T08:08:11;11.83;;;4.90;;
422;SDS011;198;48.752;9.180;2023-02-28T08:10:36;12.30;;;6.00;;
422;SDS011;198;48.752;9.180;2023-02-28T08:13:02;17.97;;;6.00;;
422;SDS011;198;48.752;9.180;2023-02-28T08:15:28;14.83;;;6.07;;
422;SDS011;198;48.752;9.180;2023-02-28T08:17:54;11.23;;;6.27;;
422;SDS011;198;48.752;9.180;2023-02-28T08:20:21;8.10;;;4.57;;
422;SDS011;198;48.752;9.180;2023-02-28T08:22:47;13.60;;;5.47;;
422;SDS011;198;48.752;9.180;2023-02-28T08:25:12;15.10;;;6.83;;
422;SDS011;198;48.752;9.180;2023-02-28T08:27:38;9.73;;;5.07;;
422;SDS011;198;48.752;9.180;2023-02-28T08:30:04;11.70;;;5.80;;
422;SDS011;198;48.752;9.180;2023-02-28T08:32:30;11.07;;;5.30;;
422;SDS011;198;48.752;9.180;2023-02-28T08:34:56;10.70;;;5.60;;
422;SDS011;198;48.752;9.180;2023-02-28T08:37:22;9.60;;;5.17;;
422;SDS011;198;48.752;9.180;2023-02-28T08:39:47;9.47;;;5.27;;
422;SDS011;198;48.752;9.180;2023-02-28T08:42:13;11.23;;;5.13;;
422;SDS011;198;48.752;9.180;2023-02-28T08:44:38;10.70;;;5.37;;
422;SDS011;198;48.752;9.180;2023-02-28T08:47:05;8.97;;;4.73;;
422;SDS011;198;48.752;9.180;2023-02-28T08:49:30;15.30;;;6.03;;
422;SDS011;198;48.752;9.180;2023-02-28T08:51:56;11.37;;;4.73;;
422;SDS011;198;48.752;9.180;2023-02-28T08:54:22;9.57;;;5.77;;
422;SDS011;198;48.752;9.180;2023-02-28T08:56:48;13.57;;;6.20;;
422;SDS011;198;48.752;9.180;2023-02-28T08:59:13;9.37;;;5.30;;
422;SDS011;198;48.752;9.180;2023-02-28T09:01:39;9.60;;;4.83;;
422;SDS011;198;48.752;9.180;2023-02-28T09:04:06;10.13;;;5.27;;
422;SDS011;198;48.752;9.180;2023-02-28T09:06:33;16.30;;;5.93;;
422;SDS011;198;48.752;9.180;2023-02-28T09:08:59;18.23;;;6.07;;
422;SDS011;198;48.752;9.180;2023-02-28T09:11:26;13.70;;;5.30;;
422;SDS011;198;48.752;9.180;2023-02-28T09:13:53;16.93;;;6.03;;
422;SDS011;198;48.752;9.180;2023-02-28T09:16:20;12.07;;;6.47;;
422;SDS011;198;48.752;9.180;2023-02-28T09:18:46;8.53;;;4.83;;
422;SDS011;198;48.752;9.180;2023-02-28T09:21:13;15.40;;;5.57;;
422;SDS011;198;48.752;9.180;2023-02-28T09:23:41;14.70;;;5.47;;
422;SDS011;198;48.752;9.180;2023-02-28T09:26:07;13.63;;;6.20;;
422;SDS011;198;48.752;9.180;2023-02-28T09:28:37;13.50;;;6.80;;
422;SDS011;198;48.752;9.180;2023-02-28T09:31:03;8.47;;;4.90;;
422;SDS011;198;48.752;9.180;2023-02-28T09:33:29;17.23;;;5.37;;
422;SDS011;198;48.752;9.180;2023-02-28T09:35:59;16.13;;;6.40;;
422;SDS011;198;48.752;9.180;2023-02-28T09:38:26;11.97;;;5.60;;
422;SDS011;198;48.752;9.180;2023-02-28T09:40:53;10.87;;;5.33;;
422;SDS011;198;48.752;9.180;2023-02-28T09:43:26;14.80;;;6.03;;
422;SDS011;198;48.752;9.180;2023-02-28T09:48:50;14.00;;;6.33;;
422;SDS011;198;48.752;9.180;2023-02-28T09:51:27;11.70;;;5.50;;
422;SDS011;198;48.752;9.180;2023-02-28T09:53:58;17.27;;;7.53;;
422;SDS011;198;48.752;9.180;2023-02-28T09:56:36;18.37;;;6.80;;
422;SDS011;198;48.752;9.180;2023-02-28T10:02:02;15.47;;;6.50;;
422;SDS011;198;48.752;9.180;2023-02-28T10:04:41;12.40;;;5.33;;
422;SDS011;198;48.752;9.180;2023-02-28T10:07:23;17.40;;;7.17;;
422;SDS011;198;48.752;9.180;2023-02-28T10:10:44;14.37;;;5.27;;
422;SDS011;198;48.752;9.180;2023-02-28T10:16:16;13.63;;;6.13;;
422;SDS011;198;48.752;9.180;2023-02-28T10:18:47;18.83;;;6.20;;
422;SDS011;198;48.752;9.180;2023-02-28T10:21:34;14.67;;;7.10;;
422;SDS011;198;48.752;9.180;2023-02-28T10:24:28;16.50;;;6.40;;
422;SDS011;198;48.752;9.180;2023-02-28T10:27:00;14.07;;;6.00;;
422;SDS011;198;48.752;9.180;2023-02-28T10:29:31;13.37;;;6.60;;
422;SDS011;198;48.752;9.180;2023-02-28T10:31:58;15.77;;;7.10;;
422;SDS011;198;48.752;9.180;2023-02-28T10:34:27;12.10;;;5.70;;
422;SDS011;198;48.752;9.180;2023-02-28T10:36:52;15.13;;;5.47;;
422;SDS011;198;48.752;9.180;2023-02-28T10:39:35;19.47;;;6.60;;
422;SDS011;198;48.752;9.180;2023-02-28T10:42:27;12.47;;;6.10;;
422;SDS011;198;48.752;9.180;2023-02-28T10:58:46;13.23;;;6.80;;
422;SDS011;198;48.752;9.180;2023-02-28T11:06:43;12.17;;;5.83;;
422;SDS011;198;48.752;9.180;2023-02-28T11:09:19;13.20;;;5.47;;
422;SDS011;198;48.752;9.180;2023-02-28T11:11:51;11.10;;;5.67;;
422;SDS011;198;48.752;9.180;2023-02-28T11:14:22;11.60;;;6.50;;
422;SDS011;198;48.752;9.180;2023-02-28T11:16:51;17.50;;;7.23;;
422;SDS011;198;48.752;9.180;2023-02-28T11:19:27;10.00;;;5.87;;
422;SDS011;198;48.752;9.180;2023-02-28T11:22:00;13.40;;;5.80;;
422;SDS011;198;48.752;9.180;2023-02-28T11:24:31;17.77;;;6.00;;
422;SDS011;198;48.752;9.180;2023-02-28T11:27:01;10.77;;;5.37;;
422;SDS011;198;48.752;9.180;2023-02-28T11:29:31;10.97;;;7.27;;
422;SDS011;198;48.752;9.180;2023-02-28T11:34:29;11.17;;;5.40;;
422;SDS011;198;48.752;9.180;2023-02-28T11:36:55;16.00;;;6.40;;
422;SDS011;198;48.752;9.180;2023-02-28T11:39:23;12.83;;;6.23;;
422;SDS011;198;48.752;9.180;2023-02-28T11:45:11;8.50;;;5.53;;
422;SDS011;198;48.752;9.180;2023-02-28T11:50:45;11.23;;;6.00;;
422;SDS011;198;48.752;9.180;2023-02-28T11:56:38;10.00;;;5.07;;
422;SDS011;198;48.752;9.180;2023-02-28T11:59:12;11.27;;;5.77;;
422;SDS011;198;48.752;9.180;2023-02-28T12:05:45;9.90;;;5.57;;
422;SDS011;198;48.752;9.180;2023-02-28T12:11:19;10.47;;;5.73;;
422;SDS011;198;48.752;9.180;2023-02-28T12:13:45;13.03;;;6.07;;
422;SDS011;198;48.752;9.180;2023-02-28T12:16:18;13.10;;;6.20;;
422;SDS011;198;48.752;9.180;2023-02-28T12:19:23;11.33;;;6.40;;
422;SDS011;198;48.752;9.180;2023-02-28T12:27:33;9.27;;;5.60;;
422;SDS011;198;48.752;9.180;2023-02-28T12:32:49;7.43;;;5.33;;
422;SDS011;198;48.752;9.180;2023-02-28T12:35:23;10.17;;;5.77;;
422;SDS011;198;48.752;9.180;2023-02-28T12:37:59;10.00;;;6.37;;
422;SDS011;198;48.752;9.180;2023-02-28T12:40:42;5.33;;;4.63;;
422;SDS011;198;48.752;9.180;2023-02-28T12:43:11;10.10;;;5.90;;
422;SDS011;198;48.752;9.180;2023-02-28T12:45:43;8.90;;;6.00;;
422;SDS011;198;48.752;9.180;2023-02-28T12:48:17;13.40;;;6.30;;
422;SDS011;198;48.752;9.180;2023-02-28T12:50:49;8.70;;;5.73;;
422;SDS011;198;48.752;9.180;2023-02-28T12:53:22;9.70;;;5.77;;
422;SDS011;198;48.752;9.180;2023-02-28T13:02:09;7.57;;;5.37;;
422;SDS011;198;48.752;9.180;2023-02-28T13:07:55;13.00;;;5.50;;
422;SDS011;198;48.752;9.180;2023-02-28T13:10:43;7.80;;;5.77;;
422;SDS011;198;48.752;9.180;2023-02-28T13:13:14;9.47;;;6.20;;
422;SDS011;198;48.752;9.180;2023-02-28T13:18:29;9.20;;;6.47;;
422;SDS011;198;48.752;9.180;2023-02-28T13:20:57;10.50;;;7.00;;
422;SDS011;198;48.752;9.180;2023-02-28T13:23:41;11.87;;;7.33;;
422;SDS011;198;48.752;9.180;2023-02-28T13:29:00;9.27;;;6.10;;
422;SDS011;198;48.752;9.180;2023-02-28T13:31:27;10.20;;;6.50;;
422;SDS011;198;48.752;9.180;2023-02-28T13:36:30;9.60;;;6.43;;
422;SDS011;198;48.752;9.180;2023-02-28T13:39:01;9.97;;;6.30;;
422;SDS011;198;48.752;9.180;2023-02-28T13:46:32;11.67;;;6.30;;
422;SDS011;198;48.752;9.180;2023-02-28T13:51:46;12.00;;;5.93;;
422;SDS011;198;48.752;9.180;2023-02-28T13:57:32;13.37;;;6.80;;
422;SDS011;198;48.752;9.180;2023-02-28T14:05:36;10.53;;;6.40;;
422;SDS011;198;48.752;9.180;2023-02-28T14:08:04;15.07;;;6.50;;
422;SDS011;198;48.752;9.180;2023-02-28T14:10:42;10.93;;;6.60;;
422;SDS011;198;48.752;9.180;2023-02-28T14:13:17;11.37;;;6.00;;
422;SDS011;198;48.752;9.180;2023-02-28T14:16:20;14.43;;;5.83;;
422;SDS011;198;48.752;9.180;2023-02-28T14:21:24;10.47;;;6.00;;
422;SDS011;198;48.752;9.180;2023-02-28T14:27:03;14.17;;;5.90;;
422;SDS011;198;48.752;9.180;2023-02-28T14:36:01;8.43;;;4.93;;
422;SDS011;198;48.752;9.180;2023-02-28T14:38:57;14.07;;;6.57;;
422;SDS011;198;48.752;9.180;2023-02-28T14:41:32;21.40;;;7.43;;
422;SDS011;198;48.752;9.180;2023-02-28T14:44:17;11.47;;;5.10;;
422;SDS011;198;48.752;9.180;2023-02-28T14:46:43;16.90;;;6.60;;
422;SDS011;198;48.752;9.180;2023-02-28T14:49:13;17.27;;;6.30;;
422;SDS011;198;48.752;9.180;2023-02-28T14:52:02;10.63;;;5.80;;
422;SDS011;198;48.752;9.180;2023-02-28T14:54:35;9.77;;;5.50;;
422;SDS011;198;48.752;9.180;2023-02-28T14:57:02;14.40;;;6.73;;
422;SDS011;198;48.752;9.180;2023-02-28T14:59:32;11.40;;;6.07;;
422;SDS011;198;48.752;9.180;2023-02-28T15:02:19;16.30;;;6.10;;
422;SDS011;198;48.752;9.180;2023-02-28T15:04:56;15.90;;;6.10;;
422;SDS011;198;48.752;9.180;2023-02-28T15:07:35;7.90;;;4.97;;
422;SDS011;198;48.752;9.180;2023-02-28T15:10:20;11.23;;;5.77;;
422;SDS011;198;48.752;9.180;2023-02-28T15:15:22;16.03;;;6.57;;
422;SDS011;198;48.752;9.180;2023-02-28T15:17:58;8.37;;;5.00;;
422;SDS011;198;48.752;9.180;2023-02-28T15:20:25;8.20;;;4.73;;
422;SDS011;198;48.752;9.180;2023-02-28T15:22:52;11.50;;;6.10;;
422;SDS011;198;48.752;9.180;2023-02-28T15:25:21;15.93;;;5.83;;
422;SDS011;198;48.752;9.180;2023-02-28T15:27:52;10.13;;;5.53;;
422;SDS011;198;48.752;9.180;2023-02-28T15:30:25;7.00;;;4.93;;
422;SDS011;198;48.752;9.180;2023-02-28T15:33:03;8.90;;;5.33;;
422;SDS011;198;48.752;9.180;2023-02-28T15:35:36;12.67;;;6.13;;
422;SDS011;198;48.752;9.180;2023-02-28T15:38:21;9.93;;;5.57;;
422;SDS011;198;48.752;9.180;2023-02-28T15:40:50;9.20;;;5.27;;
422;SDS011;198;48.752;9.180;2023-02-28T15:43:32;9.57;;;5.40;;
422;SDS011;198;48.752;9.180;2023-02-28T15:48:36;8.87;;;5.67;;
422;SDS011;198;48.752;9.180;2023-02-28T15:51:08;13.10;;;5.50;;
422;SDS011;198;48.752;9.180;2023-02-28T15:56:25;10.03;;;5.30;;
422;SDS011;198;48.752;9.180;2023-02-28T15:58:56;12.23;;;6.07;;
422;SDS011;198;48.752;9.180;2023-02-28T16:03:59;12.90;;;5.37;;
422;SDS011;198;48.752;9.180;2023-02-28T16:06:38;11.60;;;5.90;;
422;SDS011;198;48.752;9.180;2023-02-28T16:09:08;14.80;;;6.50;;
422;SDS011;198;48.752;9.180;2023-02-28T16:11:38;12.83;;;5.90;;
422;SDS011;198;48.752;9.180;2023-02-28T16:14:13;10.70;;;5.43;;
422;SDS011;198;48.752;9.180;2023-02-28T16:16:47;12.20;;;6.30;;
422;SDS011;198;48.752;9.180;2023-02-28T16:19:15;13.10;;;6.40;;
422;SDS011;198;48.752;9.180;2023-02-28T16:21:40;11.57;;;6.10;;
422;SDS011;198;48.752;9.180;2023-02-28T16:24:06;12.17;;;5.77;;
422;SDS011;198;48.752;9.180;2023-02-28T16:26:32;17.13;;;6.53;;
422;SDS011;198;48.752;9.180;2023-02-28T16:28:59;10.67;;;5.80;;
422;SDS011;198;48.752;9.180;2023-02-28T16:31:28;23.33;;;6.33;;
422;SDS011;198;48.752;9.180;2023-02-28T16:33:54;26.63;;;6.37;;
422;SDS011;198;48.752;9.180;2023-02-28T16:36:20;15.53;;;6.30;;
422;SDS011;198;48.752;9.180;2023-02-28T16:38:50;13.57;;;6.83;;
422;SDS011;198;48.752;9.180;2023-02-28T16:41:19;13.00;;;5.77;;
422;SDS011;198;48.752;9.180;2023-02-28T16:43:47;11.80;;;6.57;;
422;SDS011;198;48.752;9.180;2023-02-28T16:46:15;19.63;;;7.13;;
422;SDS011;198;48.752;9.180;2023-02-28T16:48:41;13.60;;;6.03;;
422;SDS011;198;48.752;9.180;2023-02-28T16:51:12;12.07;;;5.77;;
422;SDS011;198;48.752;9.180;2023-02-28T16:53:40;14.60;;;6.90;;
422;SDS011;198;48.752;9.180;2023-02-28T16:56:06;11.80;;;6.70;;
422;SDS011;198;48.752;9.180;2023-02-28T16:58:37;14.63;;;6.80;;
422;SDS011;198;48.752;9.180;2023-02-28T17:01:02;14.50;;;7.00;;
422;SDS011;198;48.752;9.180;2023-02-28T17:03:28;18.50;;;7.63;;
422;SDS011;198;48.752;9.180;2023-02-28T17:05:54;29.17;;;7.30;;
422;SDS011;198;48.752;9.180;2023-02-28T17:08:20;15.73;;;5.70;;
422;SDS011;198;48.752;9.180;2023-02-28T17:10:46;14.63;;;7.03;;
422;SDS011;198;48.752;9.180;2023-02-28T17:13:11;16.00;;;6.80;;
422;SDS011;198;48.752;9.180;2023-02-28T17:15:37;12.00;;;6.47;;
422;SDS011;198;48.752;9.180;2023-02-28T17:18:03;8.40;;;5.63;;
422;SDS011;198;48.752;9.180;2023-02-28T17:20:29;11.13;;;6.27;;
422;SDS011;198;48.752;9.180;2023-02-28T17:22:55;11.33;;;5.90;;
422;SDS011;198;48.752;9.180;2023-02-28T17:25:22;19.70;;;8.60;;
422;SDS011;198;48.752;9.180;2023-02-28T17:27:48;12.80;;;7.50;;
422;SDS011;198;48.752;9.180;2023-02-28T17:30:17;12.40;;;7.23;;
422;SDS011;198;48.752;9.180;2023-02-28T17:32:45;14.63;;;6.27;;
422;SDS011;198;48.752;9.180;2023-02-28T17:35:11;16.90;;;7.23;;
422;SDS011;198;48.752;9.180;2023-02-28T17:37:36;26.13;;;6.63;;
422;SDS011;198;48.752;9.180;2023-02-28T17:40:02;15.33;;;7.67;;
422;SDS011;198;48.752;9.180;2023-02-28T17:42:28;12.60;;;6.00;;
422;SDS011;198;48.752;9.180;2023-02-28T17:44:54;20.30;;;7.17;;
422;SDS011;198;48.752;9.180;2023-02-28T17:47:19;13.47;;;6.30;;
422;SDS011;198;48.752;9.180;2023-02-28T17:49:44;16.53;;;7.43;;
422;SDS011;198;48.752;9.180;2023-02-28T17:52:10;15.50;;;6.53;;
422;SDS011;198;48.752;9.180;2023-02-28T17:54:35;12.90;;;6.60;;
422;SDS011;198;48.752;9.180;2023-02-28T17:57:01;15.10;;;7.67;;
422;SDS011;198;48.752;9.180;2023-02-28T17:59:27;14.33;;;6.90;;
422;SDS011;198;48.752;9.180;2023-02-28T18:01:58;12.90;;;7.30;;
422;SDS011;198;48.752;9.180;2023-02-28T18:04:25;16.00;;;6.77;;
422;SDS011;198;48.752;9.180;2023-02-28T18:06:52;15.97;;;7.73;;
422;SDS011;198;48.752;9.180;2023-02-28T18:09:21;14.50;;;6.90;;
422;SDS011;198;48.752;9.180;2023-02-28T18:11:48;15.70;;;6.80;;
422;SDS011;198;48.752;9.180;2023-02-28T18:14:15;16.40;;;7.23;;
422;SDS011;198;48.752;9.180;2023-02-28T18:16:41;14.67;;;6.73;;
422;SDS011;198;48.752;9.180;2023-02-28T18:19:07;18.23;;;6.97;;